sensor_id;sensor_type;location;lat;lon;timestamp;pressure;altitude;pressure_sealevel;temperature;humidity
24160;BME280;62385;41.594;23.808;2023-04-06T00:00:20;95057.75;;;5.71;65.72
24160;BME280;62385;41.594;23.808;2023-04-06T00:02:46;95057.97;;;5.78;65.60
24160;BME280;62385;41.594;23.808;2023-04-06T00:05:12;95064.06;;;5.25;66.72
24160;BME280;62385;41.594;23.808;2023-04-06T00:07:37;95059.78;;;4.70;67.56
24160;BME280;62385;41.594;23.808;2023-04-06T00:10:03;95058.81;;;4.71;66.66
24160;BME280;62385;41.594;23.808;2023-04-06T00:12:29;95065.19;;;4.68;66.88
24160;BME280;62385;41.594;23.808;2023-04-06T00:14:55;95056.19;;;4.71;66.97
24160;BME280;62385;41.594;23.808;2023-04-06T00:17:20;95056.53;;;4.58;67.65
24160;BME280;62385;41.594;23.808;2023-04-06T00:19:46;95046.56;;;4.25;68.89
24160;BME280;62385;41.594;23.808;2023-04-06T00:22:12;95056.13;;;4.16;68.68
24160;BME280;62385;41.594;23.808;2023-04-06T00:24:37;95056.63;;;4.39;68.65
24160;BME280;62385;41.594;23.808;2023-04-06T00:27:03;95052.09;;;4.58;67.43
24160;BME280;62385;41.594;23.808;2023-04-06T00:29:29;95046.91;;;4.39;67.90
24160;BME280;62385;41.594;23.808;2023-04-06T00:31:54;95047.28;;;4.17;68.10
24160;BME280;62385;41.594;23.808;2023-04-06T00:34:21;95040.34;;;4.16;68.21
24160;BME280;62385;41.594;23.808;2023-04-06T00:36:47;95052.38;;;4.18;67.94
24160;BME280;62385;41.594;23.808;2023-04-06T00:39:12;95040.78;;;4.11;68.11
24160;BME280;62385;41.594;23.808;2023-04-06T00:41:39;95035.03;;;4.35;66.93
24160;BME280;62385;41.594;23.808;2023-04-06T00:44:07;95044.47;;;4.18;67.09
24160;BME280;62385;41.594;23.808;2023-04-06T00:46:33;95029.63;;;3.90;67.66
24160;BME280;62385;41.594;23.808;2023-04-06T00:48:59;95033.72;;;4.12;67.08
24160;BME280;62385;41.594;23.808;2023-04-06T00:51:24;95027.47;;;3.76;67.24
24160;BME280;62385;41.594;23.808;2023-04-06T00:53:50;95023.00;;;3.86;67.44
24160;BME280;62385;41.594;23.808;2023-04-06T00:56:16;95026.22;;;3.80;67.79
24160;BME280;62385;41.594;23.808;2023-04-06T00:58:49;95022.75;;;3.89;67.87
24160;BME280;62385;41.594;23.808;2023-04-06T01:01:15;95026.56;;;4.14;67.02
24160;BME280;62385;41.594;23.808;2023-04-06T01:03:41;95018.19;;;3.82;67.38
24160;BME280;62385;41.594;23.808;2023-04-06T01:06:13;95015.06;;;3.68;67.71
24160;BME280;62385;41.594;23.808;2023-04-06T01:08:41;95007.59;;;4.10;66.97
24160;BME280;62385;41.594;23.808;2023-04-06T01:11:17;95002.91;;;4.69;64.60
24160;BME280;62385;41.594;23.808;2023-04-06T01:13:44;94997.75;;;4.77;64.29
24160;BME280;62385;41.594;23.808;2023-04-06T01:16:24;94998.28;;;3.89;66.70
24160;BME280;62385;41.594;23.808;2023-04-06T01:19:12;94994.75;;;3.42;68.06
24160;BME280;62385;41.594;23.808;2023-04-06T01:21:41;94996.50;;;3.80;67.15
24160;BME280;62385;41.594;23.808;2023-04-06T01:24:27;94979.69;;;4.09;66.37
24160;BME280;62385;41.594;23.808;2023-04-06T01:27:13;94984.88;;;3.82;66.86
24160;BME280;62385;41.594;23.808;2023-04-06T01:29:59;94977.81;;;4.56;66.13
24160;BME280;62385;41.594;23.808;2023-04-06T01:32:48;94976.22;;;4.46;65.98
24160;BME280;62385;41.594;23.808;2023-04-06T01:35:19;94985.38;;;4.42;66.56
24160;BME280;62385;41.594;23.808;2023-04-06T01:37:55;94986.00;;;4.53;66.39
24160;BME280;62385;41.594;23.808;2023-04-06T01:40:27;94984.53;;;4.41;67.40
24160;BME280;62385;41.594;23.808;2023-04-06T01:42:53;94986.84;;;4.44;67.98
24160;BME280;62385;41.594;23.808;2023-04-06T01:45:27;94989.66;;;4.43;67.64
24160;BME280;62385;41.594;23.808;2023-04-06T01:47:57;94990.22;;;4.37;68.25
24160;BME280;62385;41.594;23.808;2023-04-06T01:50:25;94982.06;;;4.03;68.99
24160;BME280;62385;41.594;23.808;2023-04-06T01:52:51;94985.06;;;3.71;68.02
24160;BME280;62385;41.594;23.808;2023-04-06T01:55:17;94989.59;;;3.79;67.61
24160;BME280;62385;41.594;23.808;2023-04-06T01:58:00;94981.91;;;3.48;67.96
24160;BME280;62385;41.594;23.808;2023-04-06T02:00:32;94979.59;;;3.26;68.58
24160;BME280;62385;41.594;23.808;2023-04-06T02:02:58;94987.88;;;3.12;68.77
24160;BME280;62385;41.594;23.808;2023-04-06T02:05:29;94988.56;;;3.04;69.37
24160;BME280;62385;41.594;23.808;2023-04-06T02:07:57;94991.06;;;3.06;69.37
24160;BME280;62385;41.594;23.808;2023-04-06T02:10:31;94989.09;;;2.98;68.93
24160;BME280;62385;41.594;23.808;2023-04-06T02:13:15;94984.41;;;2.83;69.16
24160;BME280;62385;41.594;23.808;2023-04-06T02:15:46;94972.09;;;2.73;69.83
24160;BME280;62385;41.594;23.808;2023-04-06T02:18:11;94968.66;;;2.63;69.60
24160;BME280;62385;41.594;23.808;2023-04-06T02:20:37;94968.66;;;2.83;69.64
24160;BME280;62385;41.594;23.808;2023-04-06T02:23:03;94985.09;;;2.85;69.68
24160;BME280;62385;41.594;23.808;2023-04-06T02:25:28;94975.16;;;2.88;69.39
24160;BME280;62385;41.594;23.808;2023-04-06T02:27:54;94982.47;;;2.75;69.71
24160;BME280;62385;41.594;23.808;2023-04-06T02:30:19;94986.91;;;3.03;69.15
24160;BME280;62385;41.594;23.808;2023-04-06T02:32:46;94979.44;;;2.89;69.30
24160;BME280;62385;41.594;23.808;2023-04-06T02:35:12;94976.25;;;2.76;70.00
24160;BME280;62385;41.594;23.808;2023-04-06T02:37:39;94968.78;;;2.52;69.88
24160;BME280;62385;41.594;23.808;2023-04-06T02:40:05;94984.59;;;2.31;70.73
24160;BME280;62385;41.594;23.808;2023-04-06T02:42:31;94968.88;;;2.31;70.91
24160;BME280;62385;41.594;23.808;2023-04-06T02:44:58;94978.56;;;2.50;70.48
24160;BME280;62385;41.594;23.808;2023-04-06T02:47:29;94967.75;;;2.34;70.94
24160;BME280;62385;41.594;23.808;2023-04-06T02:49:55;94970.81;;;2.39;70.58
24160;BME280;62385;41.594;23.808;2023-04-06T02:52:20;94967.38;;;2.58;69.90
24160;BME280;62385;41.594;23.808;2023-04-06T02:54:46;94960.22;;;2.69;69.63
24160;BME280;62385;41.594;23.808;2023-04-06T02:57:12;94960.66;;;2.74;70.29
24160;BME280;62385;41.594;23.808;2023-04-06T02:59:41;94967.28;;;3.36;68.10
24160;BME280;62385;41.594;23.808;2023-04-06T03:02:18;94961.50;;;2.94;68.68
24160;BME280;62385;41.594;23.808;2023-04-06T03:04:45;94953.59;;;2.46;70.13
24160;BME280;62385;41.594;23.808;2023-04-06T03:07:20;94961.22;;;2.88;69.22
24160;BME280;62385;41.594;23.808;2023-04-06T03:09:47;94959.44;;;2.88;69.12
24160;BME280;62385;41.594;23.808;2023-04-06T03:12:12;94966.59;;;3.34;68.25
24160;BME280;62385;41.594;23.808;2023-04-06T03:14:58;94955.06;;;3.73;66.04
24160;BME280;62385;41.594;23.808;2023-04-06T03:17:24;94958.31;;;3.39;67.69
24160;BME280;62385;41.594;23.808;2023-04-06T03:19:50;94961.50;;;3.13;67.38
24160;BME280;62385;41.594;23.808;2023-04-06T03:22:16;94963.72;;;3.18;67.61
24160;BME280;62385;41.594;23.808;2023-04-06T03:24:42;94963.31;;;3.13;68.07
24160;BME280;62385;41.594;23.808;2023-04-06T03:27:27;94956.91;;;3.44;67.28
24160;BME280;62385;41.594;23.808;2023-04-06T03:29:54;94966.19;;;3.39;67.30
24160;BME280;62385;41.594;23.808;2023-04-06T03:32:26;94971.56;;;3.37;67.46
24160;BME280;62385;41.594;23.808;2023-04-06T03:34:52;94969.50;;;3.41;67.88
24160;BME280;62385;41.594;23.808;2023-04-06T03:37:17;94964.22;;;3.60;66.02
24160;BME280;62385;41.594;23.808;2023-04-06T03:39:51;94972.56;;;2.98;68.43
24160;BME280;62385;41.594;23.808;2023-04-06T03:42:20;94971.16;;;2.74;68.74
24160;BME280;62385;41.594;23.808;2023-04-06T03:44:52;94976.72;;;2.31;69.69
24160;BME280;62385;41.594;23.808;2023-04-06T03:47:18;94967.59;;;2.26;70.92
24160;BME280;62385;41.594;23.808;2023-04-06T03:49:45;94975.63;;;2.34;70.21
24160;BME280;62385;41.594;23.808;2023-04-06T03:52:12;94969.97;;;2.39;70.08
24160;BME280;62385;41.594;23.808;2023-04-06T03:54:39;94960.53;;;2.17;70.17
24160;BME280;62385;41.594;23.808;2023-04-06T03:57:05;94969.88;;;2.10;70.99
24160;BME280;62385;41.594;23.808;2023-04-06T03:59:31;94965.31;;;2.02;71.27
24160;BME280;62385;41.594;23.808;2023-04-06T04:01:56;94962.03;;;2.10;70.82
24160;BME280;62385;41.594;23.808;2023-04-06T04:04:22;94972.31;;;2.42;70.17
24160;BME280;62385;41.594;23.808;2023-04-06T04:06:48;94962.84;;;2.50;70.00
24160;BME280;62385;41.594;23.808;2023-04-06T04:09:14;94962.72;;;2.90;68.91
24160;BME280;62385;41.594;23.808;2023-04-06T04:11:39;94956.13;;;3.24;68.27
24160;BME280;62385;41.594;23.808;2023-04-06T04:14:05;94960.53;;;3.34;67.45
24160;BME280;62385;41.594;23.808;2023-04-06T04:16:31;94959.66;;;3.52;66.63
24160;BME280;62385;41.594;23.808;2023-04-06T04:18:56;94959.16;;;3.39;67.28
24160;BME280;62385;41.594;23.808;2023-04-06T04:21:24;94962.75;;;3.00;68.44
24160;BME280;62385;41.594;23.808;2023-04-06T04:23:51;94960.66;;;2.74;68.98
24160;BME280;62385;41.594;23.808;2023-04-06T04:26:37;94966.84;;;2.73;68.65
24160;BME280;62385;41.594;23.808;2023-04-06T04:29:06;94962.59;;;3.30;67.20
24160;BME280;62385;41.594;23.808;2023-04-06T04:31:32;94960.66;;;3.51;66.62
24160;BME280;62385;41.594;23.808;2023-04-06T04:34:01;94963.44;;;3.21;67.76
24160;BME280;62385;41.594;23.808;2023-04-06T04:36:30;94965.63;;;3.45;66.89
24160;BME280;62385;41.594;23.808;2023-04-06T04:38:59;94969.78;;;3.47;67.16
24160;BME280;62385;41.594;23.808;2023-04-06T04:41:29;94961.03;;;4.03;66.78
24160;BME280;62385;41.594;23.808;2023-04-06T04:43:54;94968.56;;;3.88;66.89
24160;BME280;62385;41.594;23.808;2023-04-06T04:46:23;94961.47;;;3.98;66.68
24160;BME280;62385;41.594;23.808;2023-04-06T04:48:49;94967.84;;;3.96;67.00
24160;BME280;62385;41.594;23.808;2023-04-06T04:51:15;94961.69;;;4.14;66.54
24160;BME280;62385;41.594;23.808;2023-04-06T04:54:10;94963.13;;;4.63;66.19
24160;BME280;62385;41.594;23.808;2023-04-06T04:56:36;94958.78;;;4.45;67.08
24160;BME280;62385;41.594;23.808;2023-04-06T04:59:14;94964.69;;;4.29;66.91
24160;BME280;62385;41.594;23.808;2023-04-06T05:01:47;94950.25;;;4.60;66.41
24160;BME280;62385;41.594;23.808;2023-04-06T05:04:12;94962.19;;;4.55;66.34
24160;BME280;62385;41.594;23.808;2023-04-06T05:06:39;94955.84;;;4.48;66.63
24160;BME280;62385;41.594;23.808;2023-04-06T05:09:05;94950.78;;;4.64;66.22
24160;BME280;62385;41.594;23.808;2023-04-06T05:11:30;94962.16;;;4.37;67.16
24160;BME280;62385;41.594;23.808;2023-04-06T05:13:59;94952.25;;;4.49;67.19
24160;BME280;62385;41.594;23.808;2023-04-06T05:16:25;94946.84;;;4.95;65.47
24160;BME280;62385;41.594;23.808;2023-04-06T05:18:51;94958.28;;;5.04;65.33
24160;BME280;62385;41.594;23.808;2023-04-06T05:21:19;94948.78;;;5.11;64.61
24160;BME280;62385;41.594;23.808;2023-04-06T05:24:01;94959.31;;;5.11;65.37
24160;BME280;62385;41.594;23.808;2023-04-06T05:26:29;94952.78;;;5.15;65.40
24160;BME280;62385;41.594;23.808;2023-04-06T05:29:00;94954.13;;;5.37;65.23
24160;BME280;62385;41.594;23.808;2023-04-06T05:31:30;94960.00;;;5.13;65.82
24160;BME280;62385;41.594;23.808;2023-04-06T05:33:56;94945.47;;;5.27;65.02
24160;BME280;62385;41.594;23.808;2023-04-06T05:36:34;94944.50;;;5.28;64.28
24160;BME280;62385;41.594;23.808;2023-04-06T05:39:05;94950.44;;;4.94;65.98
24160;BME280;62385;41.594;23.808;2023-04-06T05:41:49;94941.09;;;5.79;64.03
24160;BME280;62385;41.594;23.808;2023-04-06T05:44:20;94945.78;;;5.24;65.40
24160;BME280;62385;41.594;23.808;2023-04-06T05:46:53;94943.97;;;5.24;64.87
24160;BME280;62385;41.594;23.808;2023-04-06T05:49:20;94944.84;;;5.50;63.74
24160;BME280;62385;41.594;23.808;2023-04-06T05:51:46;94937.81;;;5.33;64.80
24160;BME280;62385;41.594;23.808;2023-04-06T05:54:11;94942.88;;;5.52;65.12
24160;BME280;62385;41.594;23.808;2023-04-06T05:56:38;94934.94;;;5.27;65.16
24160;BME280;62385;41.594;23.808;2023-04-06T05:59:05;94935.50;;;5.13;64.91
24160;BME280;62385;41.594;23.808;2023-04-06T06:01:31;94936.59;;;5.45;63.77
24160;BME280;62385;41.594;23.808;2023-04-06T06:03:56;94932.19;;;5.80;63.66
24160;BME280;62385;41.594;23.808;2023-04-06T06:06:28;94930.00;;;5.93;62.21
24160;BME280;62385;41.594;23.808;2023-04-06T06:09:27;94920.22;;;6.45;61.77
24160;BME280;62385;41.594;23.808;2023-04-06T06:12:09;94924.91;;;5.48;62.58
24160;BME280;62385;41.594;23.808;2023-04-06T06:14:34;94915.47;;;6.57;60.70
24160;BME280;62385;41.594;23.808;2023-04-06T06:17:00;94906.03;;;7.12;58.70
24160;BME280;62385;41.594;23.808;2023-04-06T06:19:27;94909.09;;;6.83;59.52
24160;BME280;62385;41.594;23.808;2023-04-06T06:21:56;94903.53;;;7.19;57.98
24160;BME280;62385;41.594;23.808;2023-04-06T06:24:22;94904.66;;;6.92;57.89
24160;BME280;62385;41.594;23.808;2023-04-06T06:26:48;94899.44;;;7.16;56.81
24160;BME280;62385;41.594;23.808;2023-04-06T06:29:16;94902.56;;;7.36;56.42
24160;BME280;62385;41.594;23.808;2023-04-06T06:31:42;94892.31;;;7.25;57.34
24160;BME280;62385;41.594;23.808;2023-04-06T06:34:09;94888.66;;;7.58;55.78
24160;BME280;62385;41.594;23.808;2023-04-06T06:36:36;94890.19;;;7.45;56.27
24160;BME280;62385;41.594;23.808;2023-04-06T06:39:05;94890.50;;;7.66;55.13
24160;BME280;62385;41.594;23.808;2023-04-06T06:41:30;94891.28;;;7.74;54.22
24160;BME280;62385;41.594;23.808;2023-04-06T06:43:57;94899.56;;;7.47;55.61
24160;BME280;62385;41.594;23.808;2023-04-06T06:46:22;94893.78;;;7.52;54.32
24160;BME280;62385;41.594;23.808;2023-04-06T06:48:48;94905.81;;;7.78;54.73
24160;BME280;62385;41.594;23.808;2023-04-06T06:51:13;94895.63;;;8.30;53.19
24160;BME280;62385;41.594;23.808;2023-04-06T06:53:40;94901.03;;;8.37;55.28
24160;BME280;62385;41.594;23.808;2023-04-06T06:56:06;94884.81;;;7.93;54.86
24160;BME280;62385;41.594;23.808;2023-04-06T06:58:31;94887.03;;;8.12;54.49
24160;BME280;62385;41.594;23.808;2023-04-06T07:00:59;94884.88;;;8.16;54.57
24160;BME280;62385;41.594;23.808;2023-04-06T07:03:26;94882.03;;;8.33;54.11
24160;BME280;62385;41.594;23.808;2023-04-06T07:05:53;94886.41;;;8.10;52.94
24160;BME280;62385;41.594;23.808;2023-04-06T07:08:23;94889.69;;;8.12;53.35
24160;BME280;62385;41.594;23.808;2023-04-06T07:10:50;94887.38;;;8.64;52.37
24160;BME280;62385;41.594;23.808;2023-04-06T07:13:18;94887.25;;;8.50;50.22
24160;BME280;62385;41.594;23.808;2023-04-06T07:15:49;94887.28;;;8.42;51.80
24160;BME280;62385;41.594;23.808;2023-04-06T07:18:16;94876.94;;;8.63;52.16
24160;BME280;62385;41.594;23.808;2023-04-06T07:20:44;94882.41;;;8.92;52.82
24160;BME280;62385;41.594;23.808;2023-04-06T07:23:09;94876.88;;;9.24;51.63
24160;BME280;62385;41.594;23.808;2023-04-06T07:25:35;94879.50;;;9.24;51.99
24160;BME280;62385;41.594;23.808;2023-04-06T07:28:03;94883.16;;;9.01;53.25
24160;BME280;62385;41.594;23.808;2023-04-06T07:30:31;94875.88;;;9.25;51.14
24160;BME280;62385;41.594;23.808;2023-04-06T07:32:57;94878.38;;;8.73;53.39
24160;BME280;62385;41.594;23.808;2023-04-06T07:35:26;94879.53;;;9.02;49.69
24160;BME280;62385;41.594;23.808;2023-04-06T07:37:53;94878.34;;;9.27;48.57
24160;BME280;62385;41.594;23.808;2023-04-06T07:40:19;94877.75;;;9.17;47.98
24160;BME280;62385;41.594;23.808;2023-04-06T07:42:45;94871.44;;;8.95;49.26
24160;BME280;62385;41.594;23.808;2023-04-06T07:45:11;94869.06;;;9.68;48.44
24160;BME280;62385;41.594;23.808;2023-04-06T07:47:37;94866.34;;;9.54;50.08
24160;BME280;62385;41.594;23.808;2023-04-06T07:50:03;94870.44;;;9.42;48.94
24160;BME280;62385;41.594;23.808;2023-04-06T07:52:30;94859.69;;;9.58;48.68
24160;BME280;62385;41.594;23.808;2023-04-06T07:54:58;94858.72;;;9.73;49.40
24160;BME280;62385;41.594;23.808;2023-04-06T07:57:24;94847.84;;;9.68;49.58
24160;BME280;62385;41.594;23.808;2023-04-06T07:59:50;94850.16;;;9.49;48.92
24160;BME280;62385;41.594;23.808;2023-04-06T08:02:15;94849.00;;;9.66;49.12
24160;BME280;62385;41.594;23.808;2023-04-06T08:04:43;94843.72;;;9.66;49.37
24160;BME280;62385;41.594;23.808;2023-04-06T08:07:09;94838.06;;;9.84;50.46
24160;BME280;62385;41.594;23.808;2023-04-06T08:09:35;94823.53;;;10.24;48.23
24160;BME280;62385;41.594;23.808;2023-04-06T08:12:00;94830.16;;;9.46;49.62
24160;BME280;62385;41.594;23.808;2023-04-06T08:14:26;94829.31;;;9.98;47.41
24160;BME280;62385;41.594;23.808;2023-04-06T08:16:52;94817.50;;;10.30;45.34
24160;BME280;62385;41.594;23.808;2023-04-06T08:19:19;94813.03;;;10.30;47.54
24160;BME280;62385;41.594;23.808;2023-04-06T08:21:45;94816.31;;;10.03;46.57
24160;BME280;62385;41.594;23.808;2023-04-06T08:24:13;94810.44;;;10.37;46.71
24160;BME280;62385;41.594;23.808;2023-04-06T08:26:38;94799.63;;;10.53;46.60
24160;BME280;62385;41.594;23.808;2023-04-06T08:29:04;94796.34;;;10.51;47.80
24160;BME280;62385;41.594;23.808;2023-04-06T08:31:36;94795.53;;;10.06;47.85
24160;BME280;62385;41.594;23.808;2023-04-06T08:34:03;94790.09;;;10.23;47.47
24160;BME280;62385;41.594;23.808;2023-04-06T08:36:29;94793.81;;;10.28;48.19
24160;BME280;62385;41.594;23.808;2023-04-06T08:38:55;94781.25;;;10.51;47.78
24160;BME280;62385;41.594;23.808;2023-04-06T08:41:20;94777.22;;;10.41;49.00
24160;BME280;62385;41.594;23.808;2023-04-06T08:43:49;94774.00;;;10.45;47.46
24160;BME280;62385;41.594;23.808;2023-04-06T08:46:15;94778.19;;;10.54;47.79
24160;BME280;62385;41.594;23.808;2023-04-06T08:48:42;94773.50;;;10.92;47.74
24160;BME280;62385;41.594;23.808;2023-04-06T08:51:09;94764.88;;;10.90;48.24
24160;BME280;62385;41.594;23.808;2023-04-06T08:53:36;94767.41;;;11.75;46.53
24160;BME280;62385;41.594;23.808;2023-04-06T08:56:03;94757.97;;;11.17;48.76
24160;BME280;62385;41.594;23.808;2023-04-06T08:58:34;94768.03;;;11.22;49.28
24160;BME280;62385;41.594;23.808;2023-04-06T09:01:02;94760.97;;;10.86;48.44
24160;BME280;62385;41.594;23.808;2023-04-06T09:03:36;94759.06;;;10.80;45.86
24160;BME280;62385;41.594;23.808;2023-04-06T09:06:03;94754.66;;;11.43;45.56
24160;BME280;62385;41.594;23.808;2023-04-06T09:08:29;94748.09;;;11.67;44.94
24160;BME280;62385;41.594;23.808;2023-04-06T09:10:55;94758.28;;;11.07;46.04
24160;BME280;62385;41.594;23.808;2023-04-06T09:13:21;94747.00;;;11.27;48.20
24160;BME280;62385;41.594;23.808;2023-04-06T09:15:58;94755.13;;;11.74;46.86
24160;BME280;62385;41.594;23.808;2023-04-06T09:18:31;94741.50;;;11.84;47.78
24160;BME280;62385;41.594;23.808;2023-04-06T09:21:01;94744.41;;;11.95;45.94
24160;BME280;62385;41.594;23.808;2023-04-06T09:23:27;94741.66;;;12.23;44.60
24160;BME280;62385;41.594;23.808;2023-04-06T09:26:13;94738.94;;;12.10;45.21
24160;BME280;62385;41.594;23.808;2023-04-06T09:31:14;94733.53;;;12.38;46.06
24160;BME280;62385;41.594;23.808;2023-04-06T09:33:45;94734.09;;;12.27;44.39
24160;BME280;62385;41.594;23.808;2023-04-06T09:36:12;94730.69;;;12.59;46.27
24160;BME280;62385;41.594;23.808;2023-04-06T09:39:09;94729.34;;;12.83;44.40
24160;BME280;62385;41.594;23.808;2023-04-06T09:41:35;94729.31;;;12.70;45.02
24160;BME280;62385;41.594;23.808;2023-04-06T09:44:09;94730.50;;;12.67;44.49
24160;BME280;62385;41.594;23.808;2023-04-06T09:46:40;94721.75;;;12.93;43.07
24160;BME280;62385;41.594;23.808;2023-04-06T09:49:08;94720.31;;;12.90;45.36
24160;BME280;62385;41.594;23.808;2023-04-06T09:54:07;94711.50;;;12.83;41.23
24160;BME280;62385;41.594;23.808;2023-04-06T09:56:43;94723.38;;;12.74;38.71
24160;BME280;62385;41.594;23.808;2023-04-06T09:59:21;94714.53;;;12.61;38.55
24160;BME280;62385;41.594;23.808;2023-04-06T10:01:51;94715.84;;;13.24;38.44
24160;BME280;62385;41.594;23.808;2023-04-06T10:06:44;94708.63;;;13.05;36.91
24160;BME280;62385;41.594;23.808;2023-04-06T10:09:10;94702.13;;;13.20;39.86
24160;BME280;62385;41.594;23.808;2023-04-06T10:11:36;94696.75;;;13.33;40.22
24160;BME280;62385;41.594;23.808;2023-04-06T10:14:03;94705.19;;;13.17;40.07
24160;BME280;62385;41.594;23.808;2023-04-06T10:16:28;94698.22;;;13.23;39.29
24160;BME280;62385;41.594;23.808;2023-04-06T10:19:16;94696.16;;;13.31;38.23
24160;BME280;62385;41.594;23.808;2023-04-06T10:21:45;94690.13;;;13.75;36.70
24160;BME280;62385;41.594;23.808;2023-04-06T10:24:13;94692.88;;;13.29;37.07
24160;BME280;62385;41.594;23.808;2023-04-06T10:26:39;94687.91;;;13.59;39.51
24160;BME280;62385;41.594;23.808;2023-04-06T10:29:06;94687.53;;;12.96;40.72
24160;BME280;62385;41.594;23.808;2023-04-06T10:31:31;94684.63;;;13.57;39.82
24160;BME280;62385;41.594;23.808;2023-04-06T10:33:59;94677.84;;;13.74;41.23
24160;BME280;62385;41.594;23.808;2023-04-06T10:36:32;94680.97;;;12.79;37.82
24160;BME280;62385;41.594;23.808;2023-04-06T10:38:59;94678.13;;;13.27;35.50
24160;BME280;62385;41.594;23.808;2023-04-06T10:41:40;94679.94;;;13.53;38.47
24160;BME280;62385;41.594;23.808;2023-04-06T10:44:06;94674.31;;;13.80;37.00
24160;BME280;62385;41.594;23.808;2023-04-06T10:46:32;94669.47;;;14.09;38.44
24160;BME280;62385;41.594;23.808;2023-04-06T10:49:10;94668.66;;;14.08;39.16
24160;BME280;62385;41.594;23.808;2023-04-06T10:51:37;94666.97;;;13.69;39.52
24160;BME280;62385;41.594;23.808;2023-04-06T10:54:05;94664.47;;;14.25;39.08
24160;BME280;62385;41.594;23.808;2023-04-06T10:56:32;94664.75;;;13.53;36.85
24160;BME280;62385;41.594;23.808;2023-04-06T10:58:59;94664.22;;;15.03;37.86
24160;BME280;62385;41.594;23.808;2023-04-06T11:01:25;94658.44;;;14.43;37.62
24160;BME280;62385;41.594;23.808;2023-04-06T11:03:57;94648.56;;;14.75;36.54
24160;BME280;62385;41.594;23.808;2023-04-06T11:06:27;94647.06;;;14.61;37.88
24160;BME280;62385;41.594;23.808;2023-04-06T11:08:54;94649.13;;;14.84;36.26
24160;BME280;62385;41.594;23.808;2023-04-06T11:11:23;94637.22;;;15.11;37.51
24160;BME280;62385;41.594;23.808;2023-04-06T11:13:53;94644.88;;;15.50;35.59
24160;BME280;62385;41.594;23.808;2023-04-06T11:16:25;94638.78;;;15.37;37.27
24160;BME280;62385;41.594;23.808;2023-04-06T11:22:07;94644.63;;;14.15;37.22
24160;BME280;62385;41.594;23.808;2023-04-06T11:24:34;94639.84;;;14.23;35.81
24160;BME280;62385;41.594;23.808;2023-04-06T11:26:59;94635.41;;;14.49;34.90
24160;BME280;62385;41.594;23.808;2023-04-06T11:29:31;94630.97;;;14.36;38.07
24160;BME280;62385;41.594;23.808;2023-04-06T11:32:02;94626.84;;;14.40;36.29
24160;BME280;62385;41.594;23.808;2023-04-06T11:34:29;94632.41;;;15.19;35.77
24160;BME280;62385;41.594;23.808;2023-04-06T11:40:34;94623.00;;;14.61;34.55
24160;BME280;62385;41.594;23.808;2023-04-06T11:43:00;94621.00;;;14.50;34.49
24160;BME280;62385;41.594;23.808;2023-04-06T11:45:44;94616.59;;;14.93;34.93
24160;BME280;62385;41.594;23.808;2023-04-06T11:48:20;94606.63;;;14.51;37.78
24160;BME280;62385;41.594;23.808;2023-04-06T11:54:40;94604.06;;;14.31;37.95
24160;BME280;62385;41.594;23.808;2023-04-06T11:57:08;94620.03;;;14.06;36.51
24160;BME280;62385;41.594;23.808;2023-04-06T11:59:35;94609.66;;;14.23;36.27
24160;BME280;62385;41.594;23.808;2023-04-06T12:13:04;94597.25;;;15.77;34.85
24160;BME280;62385;41.594;23.808;2023-04-06T12:42:54;94587.81;;;15.13;37.00
24160;BME280;62385;41.594;23.808;2023-04-06T12:48:52;94587.81;;;14.39;36.95
24160;BME280;62385;41.594;23.808;2023-04-06T12:52:03;94586.81;;;14.90;35.43
24160;BME280;62385;41.594;23.808;2023-04-06T12:55:10;94582.06;;;15.35;38.62
24160;BME280;62385;41.594;23.808;2023-04-06T13:02:25;94585.00;;;14.84;36.95
24160;BME280;62385;41.594;23.808;2023-04-06T13:13:17;94573.94;;;14.80;35.47
24160;BME280;62385;41.594;23.808;2023-04-06T13:23:50;94568.06;;;16.05;34.49
24160;BME280;62385;41.594;23.808;2023-04-06T13:27:13;94567.09;;;15.45;33.85
24160;BME280;62385;41.594;23.808;2023-04-06T13:29:45;94558.72;;;15.78;35.71
24160;BME280;62385;41.594;23.808;2023-04-06T13:32:17;94561.28;;;16.74;35.06
24160;BME280;62385;41.594;23.808;2023-04-06T13:38:29;94554.63;;;16.65;31.40
24160;BME280;62385;41.594;23.808;2023-04-06T13:41:20;94542.75;;;16.73;33.78
24160;BME280;62385;41.594;23.808;2023-04-06T13:43:48;94546.13;;;16.80;32.62
24160;BME280;62385;41.594;23.808;2023-04-06T13:46:15;94545.50;;;16.54;31.65
24160;BME280;62385;41.594;23.808;2023-04-06T13:48:42;94540.59;;;16.10;33.02
24160;BME280;62385;41.594;23.808;2023-04-06T13:54:02;94542.00;;;16.12;31.51
24160;BME280;62385;41.594;23.808;2023-04-06T13:56:29;94548.34;;;16.30;30.56
24160;BME280;62385;41.594;23.808;2023-04-06T13:58:56;94546.31;;;16.13;32.08
24160;BME280;62385;41.594;23.808;2023-04-06T14:01:23;94541.56;;;16.57;31.75
24160;BME280;62385;41.594;23.808;2023-04-06T14:03:48;94550.22;;;16.82;31.17
24160;BME280;62385;41.594;23.808;2023-04-06T14:06:14;94545.00;;;16.46;30.42
24160;BME280;62385;41.594;23.808;2023-04-06T14:08:40;94551.25;;;17.39;31.29
24160;BME280;62385;41.594;23.808;2023-04-06T14:11:11;94540.88;;;16.61;32.85
24160;BME280;62385;41.594;23.808;2023-04-06T14:13:37;94548.50;;;16.05;32.11
24160;BME280;62385;41.594;23.808;2023-04-06T14:16:03;94553.38;;;16.79;31.67
24160;BME280;62385;41.594;23.808;2023-04-06T14:18:29;94543.69;;;16.90;30.69
24160;BME280;62385;41.594;23.808;2023-04-06T14:20:56;94547.31;;;16.31;30.81
24160;BME280;62385;41.594;23.808;2023-04-06T14:23:23;94549.88;;;17.14;31.48
24160;BME280;62385;41.594;23.808;2023-04-06T14:25:51;94553.94;;;17.39;30.33
24160;BME280;62385;41.594;23.808;2023-04-06T14:28:18;94543.94;;;17.00;30.77
24160;BME280;62385;41.594;23.808;2023-04-06T14:30:44;94549.16;;;17.06;31.45
24160;BME280;62385;41.594;23.808;2023-04-06T14:33:10;94551.16;;;16.65;31.94
24160;BME280;62385;41.594;23.808;2023-04-06T14:35:39;94552.41;;;17.67;29.75